createdAt,value
2022-12-23T00:00:40.554Z,19.80
2022-12-23T00:03:08.290Z,21.27
2022-12-23T00:05:39.983Z,20.15
2022-12-23T00:08:08.605Z,20.98
2022-12-23T00:10:39.930Z,23.40
2022-12-23T00:13:26.895Z,21.08
2022-12-23T00:16:11.732Z,20.15
2022-12-23T00:18:40.405Z,20.67
2022-12-23T00:21:14.265Z,20.98
2022-12-23T00:23:45.374Z,17.90
2022-12-23T00:26:22.139Z,18.63
2022-12-23T00:28:50.084Z,17.67
2022-12-23T00:31:19.030Z,18.63
2022-12-23T00:33:50.761Z,21.23
2022-12-23T00:36:31.195Z,23.48
2022-12-23T00:39:18.584Z,19.13
2022-12-23T00:42:04.936Z,21.02
2022-12-23T00:44:32.701Z,22.67
2022-12-23T00:47:00.456Z,18.27
2022-12-23T00:49:42.644Z,17.13
2022-12-23T00:52:18.066Z,17.33
2022-12-23T00:54:45.438Z,17.55
2022-12-23T00:57:12.826Z,16.45
2022-12-23T00:59:40.212Z,17.33
2022-12-23T01:02:26.077Z,18.23
2022-12-23T01:05:11.793Z,16.08
2022-12-23T01:07:39.227Z,18.33
2022-12-23T01:10:06.970Z,17.65
2022-12-23T01:12:34.432Z,18.25
2022-12-23T01:15:01.869Z,18.73
2022-12-23T01:17:29.219Z,18.13
2022-12-23T01:19:56.574Z,21.95
2022-12-23T01:22:23.987Z,16.73
2022-12-23T01:24:51.339Z,21.58
2022-12-23T01:27:18.570Z,19.58
2022-12-23T01:29:46.920Z,22.27
2022-12-23T01:32:14.906Z,19.58
2022-12-23T01:34:42.301Z,23.73
2022-12-23T01:37:09.761Z,21.67
2022-12-23T01:39:37.051Z,21.42
2022-12-23T01:42:22.822Z,18.67
2022-12-23T01:44:54.118Z,17.85
2022-12-23T01:47:57.000Z,19.77
2022-12-23T01:50:39.395Z,18.95
2022-12-23T01:53:24.628Z,17.85
2022-12-23T01:55:53.827Z,18.63
2022-12-23T01:58:28.321Z,21.20
2022-12-23T02:01:16.733Z,18.25
2022-12-23T02:03:46.724Z,21.70
2022-12-23T02:06:40.617Z,20.02
2022-12-23T02:09:19.969Z,18.73
2022-12-23T02:12:25.228Z,21.40
2022-12-23T02:15:41.180Z,17.73
2022-12-23T02:18:43.744Z,22.02
2022-12-23T02:21:23.544Z,19.83
2022-12-23T02:24:03.125Z,19.13
2022-12-23T02:26:33.532Z,24.25
2022-12-23T02:29:09.841Z,20.45
2022-12-23T02:31:51.325Z,22.25
2022-12-23T02:34:40.557Z,25.63
2022-12-23T02:37:13.856Z,25.55
2022-12-23T02:39:48.635Z,25.25
2022-12-23T02:42:16.847Z,26.67
2022-12-23T02:45:10.060Z,26.50
2022-12-23T02:47:43.096Z,28.77
2022-12-23T02:50:14.843Z,25.33
2022-12-23T02:52:45.270Z,24.85
2022-12-23T02:55:21.051Z,30.38
2022-12-23T02:57:51.788Z,28.30
2022-12-23T03:00:19.694Z,28.48
2022-12-23T03:02:47.491Z,28.73
2022-12-23T03:05:29.793Z,29.65
2022-12-23T03:08:00.512Z,26.10
2022-12-23T03:11:06.266Z,25.30
2022-12-23T03:13:55.158Z,26.02
2022-12-23T03:16:32.570Z,31.30
2022-12-23T03:19:25.985Z,33.08
2022-12-23T03:22:11.257Z,33.80
2022-12-23T03:25:08.268Z,29.63
2022-12-23T03:27:43.157Z,37.15
2022-12-23T03:30:19.237Z,36.58
2022-12-23T03:32:58.855Z,36.97
2022-12-23T03:35:35.907Z,31.60
2022-12-23T03:38:05.035Z,25.58
2022-12-23T03:40:41.971Z,26.52
2022-12-23T03:43:16.096Z,34.88
2022-12-23T03:45:48.476Z,28.77
2022-12-23T03:48:32.052Z,29.95
2022-12-23T03:51:05.089Z,36.50
2022-12-23T03:53:55.293Z,32.60
2022-12-23T03:56:29.508Z,34.97
2022-12-23T03:59:07.015Z,30.38
2022-12-23T04:02:01.746Z,32.70
2022-12-23T04:04:52.415Z,36.92
2022-12-23T04:07:25.664Z,35.42
2022-12-23T04:09:54.380Z,33.63
2022-12-23T04:12:24.238Z,35.28
2022-12-23T04:14:52.058Z,30.58
2022-12-23T04:17:20.344Z,39.00
2022-12-23T04:19:48.042Z,36.33
2022-12-23T04:22:16.480Z,37.95
2022-12-23T04:24:45.165Z,30.27
2022-12-23T04:27:16.721Z,43.75
2022-12-23T04:29:44.277Z,34.67
2022-12-23T04:32:11.762Z,34.58
2022-12-23T04:34:39.002Z,40.15
2022-12-23T04:37:06.346Z,30.60
2022-12-23T04:39:33.651Z,32.50
2022-12-23T04:42:00.913Z,37.55
2022-12-23T04:44:28.178Z,36.58
2022-12-23T04:46:56.231Z,34.80
2022-12-23T04:49:23.629Z,33.80
2022-12-23T04:51:50.891Z,40.80
2022-12-23T04:54:18.300Z,37.97
2022-12-23T04:56:45.607Z,33.97
2022-12-23T04:59:12.947Z,33.83
2022-12-23T05:01:42.317Z,38.00
2022-12-23T05:04:10.384Z,35.55
2022-12-23T05:06:38.177Z,33.35
2022-12-23T05:09:06.077Z,38.10
2022-12-23T05:11:38.511Z,49.08
2022-12-23T05:14:13.367Z,43.92
2022-12-23T05:16:40.871Z,36.40
2022-12-23T05:19:08.244Z,35.05
2022-12-23T05:21:35.647Z,38.17
2022-12-23T05:24:02.940Z,47.03
2022-12-23T05:26:30.496Z,43.72
2022-12-23T05:28:57.783Z,41.13
2022-12-23T05:31:25.103Z,39.20
2022-12-23T05:33:52.497Z,40.33
2022-12-23T05:36:19.975Z,40.65
2022-12-23T05:38:48.225Z,39.15
2022-12-23T05:41:17.162Z,42.28
2022-12-23T05:43:44.522Z,41.95
2022-12-23T05:46:11.899Z,34.95
2022-12-23T05:48:39.189Z,35.13
2022-12-23T05:51:06.690Z,35.83
2022-12-23T05:53:34.032Z,40.60
2022-12-23T05:56:05.268Z,50.65
2022-12-23T05:58:32.866Z,38.50
2022-12-23T06:01:03.275Z,32.25
2022-12-23T06:03:31.165Z,43.38
2022-12-23T06:05:58.657Z,33.42
2022-12-23T06:08:26.097Z,29.90
2022-12-23T06:10:54.258Z,34.22
2022-12-23T06:13:21.598Z,32.90
2022-12-23T06:15:48.908Z,30.20
2022-12-23T06:18:16.260Z,36.03
2022-12-23T06:20:47.858Z,46.72
2022-12-23T06:23:15.223Z,35.92
2022-12-23T06:25:42.679Z,32.65
2022-12-23T06:28:10.062Z,39.90
2022-12-23T06:30:37.351Z,30.10
2022-12-23T06:33:04.710Z,32.42
2022-12-23T06:35:32.118Z,35.28
2022-12-23T06:37:59.273Z,33.47
2022-12-23T06:40:28.691Z,47.60
2022-12-23T06:42:56.021Z,44.22
2022-12-23T06:45:23.330Z,34.60
2022-12-23T06:47:50.583Z,36.00
2022-12-23T06:50:17.996Z,44.58
2022-12-23T06:52:45.929Z,37.15
2022-12-23T06:55:13.379Z,53.58
2022-12-23T06:57:40.743Z,35.67
2022-12-23T07:00:09.057Z,39.22
2022-12-23T07:02:36.481Z,34.40
2022-12-23T07:05:03.910Z,38.60
2022-12-23T07:07:32.519Z,32.00
2022-12-23T07:10:00.042Z,29.92
2022-12-23T07:12:27.400Z,39.13
2022-12-23T07:14:54.661Z,27.52
2022-12-23T07:17:21.909Z,28.80
2022-12-23T07:19:49.262Z,33.85
2022-12-23T07:22:16.562Z,48.42
2022-12-23T07:24:43.827Z,46.47
2022-12-23T07:27:11.217Z,38.65
2022-12-23T07:29:38.488Z,33.38
2022-12-23T07:32:05.916Z,36.20
2022-12-23T07:34:33.338Z,27.83
2022-12-23T07:37:00.893Z,33.95
2022-12-23T07:39:28.289Z,41.13
2022-12-23T07:42:16.647Z,27.02
2022-12-23T07:44:42.811Z,26.63
2022-12-23T07:47:10.168Z,25.67
2022-12-23T07:49:37.532Z,33.35
2022-12-23T07:52:05.140Z,30.83
2022-12-23T07:54:32.499Z,36.72
2022-12-23T07:56:59.803Z,28.40
2022-12-23T07:59:27.840Z,28.63
2022-12-23T08:01:55.306Z,26.63
2022-12-23T08:04:22.887Z,33.08
2022-12-23T08:06:50.151Z,25.13
2022-12-23T08:09:17.483Z,31.15
2022-12-23T08:11:46.116Z,30.70
2022-12-23T08:14:13.417Z,29.20
2022-12-23T08:16:43.918Z,32.58
2022-12-23T08:19:11.874Z,30.83
2022-12-23T08:21:39.222Z,28.75
2022-12-23T08:24:06.796Z,34.22
2022-12-23T08:26:34.109Z,36.50
2022-12-23T08:29:01.552Z,38.78
2022-12-23T08:31:33.909Z,28.35
2022-12-23T08:34:01.679Z,39.35
2022-12-23T08:36:32.638Z,28.40
2022-12-23T08:39:02.777Z,21.52
2022-12-23T08:41:34.315Z,30.67
2022-12-23T08:44:01.625Z,24.65
2022-12-23T08:46:29.338Z,32.90
2022-12-23T08:48:57.246Z,27.63
2022-12-23T08:51:26.148Z,27.33
2022-12-23T08:54:00.402Z,28.80
2022-12-23T08:56:31.531Z,33.55
2022-12-23T08:58:59.446Z,38.05
2022-12-23T09:01:29.758Z,33.42
2022-12-23T09:03:57.414Z,34.13
2022-12-23T09:06:30.540Z,28.02
2022-12-23T09:08:59.086Z,32.70
2022-12-23T09:11:29.174Z,26.60
2022-12-23T09:13:58.654Z,24.65
2022-12-23T09:16:26.404Z,25.50
2022-12-23T09:18:53.717Z,27.35
2022-12-23T09:21:23.478Z,21.83
2022-12-23T09:23:50.985Z,30.42
2022-12-23T09:26:24.334Z,25.83
2022-12-23T09:28:52.046Z,22.60
2022-12-23T09:31:20.248Z,25.73
2022-12-23T09:33:49.354Z,32.72
2022-12-23T09:36:16.768Z,21.33
2022-12-23T09:38:44.819Z,31.15
2022-12-23T09:41:30.833Z,19.02
2022-12-23T09:44:14.848Z,22.17
2022-12-23T09:49:19.064Z,19.38
2022-12-23T09:51:47.438Z,22.77
2022-12-23T09:54:24.867Z,22.48
2022-12-23T09:56:53.571Z,23.20
2022-12-23T09:59:43.971Z,27.77
2022-12-23T10:02:39.310Z,29.08
2022-12-23T10:05:17.558Z,23.85
2022-12-23T10:08:06.732Z,31.80
2022-12-23T10:10:51.243Z,24.27
2022-12-23T10:13:41.688Z,24.13
2022-12-23T10:16:16.012Z,23.35
2022-12-23T10:19:01.066Z,27.55
2022-12-23T10:21:47.538Z,29.67
2022-12-23T10:24:30.752Z,20.38
2022-12-23T10:27:03.179Z,28.77
2022-12-23T10:29:34.644Z,37.67
2022-12-23T10:32:37.389Z,35.35
2022-12-23T10:35:22.219Z,29.15
2022-12-23T10:38:16.888Z,22.55
2022-12-23T10:41:01.276Z,33.67
2022-12-23T10:43:35.324Z,29.25
2022-12-23T10:46:22.404Z,35.25
2022-12-23T10:49:22.065Z,29.55
2022-12-23T10:51:57.856Z,41.30
2022-12-23T10:54:31.227Z,34.35
2022-12-23T10:56:58.927Z,27.88
2022-12-23T10:59:34.161Z,25.58
2022-12-23T11:02:13.993Z,39.45
2022-12-23T11:04:44.573Z,29.65
2022-12-23T11:07:49.911Z,26.70
2022-12-23T11:10:21.165Z,31.20
2022-12-23T11:12:51.085Z,37.92
2022-12-23T11:15:35.073Z,27.77
2022-12-23T11:20:30.302Z,26.25
2022-12-23T11:23:02.513Z,32.47
2022-12-23T11:25:39.202Z,28.48
2022-12-23T11:28:17.409Z,30.50
2022-12-23T11:30:57.348Z,31.38
2022-12-23T11:33:31.377Z,28.00
2022-12-23T11:36:09.365Z,33.95
2022-12-23T11:38:47.667Z,27.25
2022-12-23T11:41:24.075Z,26.75
2022-12-23T11:44:04.901Z,25.98
2022-12-23T11:46:34.761Z,28.77
2022-12-23T11:49:24.441Z,27.92
2022-12-23T11:52:11.366Z,21.60
2022-12-23T11:54:39.945Z,30.35
2022-12-23T11:57:17.743Z,24.98
2022-12-23T11:59:51.744Z,31.48
2022-12-23T12:02:24.260Z,31.80
2022-12-23T12:05:00.004Z,26.98
2022-12-23T12:07:27.850Z,23.55
2022-12-23T12:09:59.627Z,30.23
2022-12-23T12:12:28.021Z,28.90
2022-12-23T12:15:00.267Z,20.25
2022-12-23T12:17:43.921Z,27.35
2022-12-23T12:20:33.480Z,21.98
2022-12-23T12:23:33.189Z,20.67
2022-12-23T12:26:06.567Z,31.90
2022-12-23T12:28:45.731Z,22.35
2022-12-23T12:31:17.587Z,28.10
2022-12-23T12:33:50.840Z,28.13
2022-12-23T12:36:33.219Z,18.95
2022-12-23T12:39:00.902Z,23.92
2022-12-23T12:41:50.842Z,22.48
2022-12-23T12:44:24.366Z,19.02
2022-12-23T12:47:44.564Z,19.23
2022-12-23T12:50:11.636Z,27.20
2022-12-23T12:52:42.236Z,17.20
2022-12-23T12:55:33.571Z,19.05
2022-12-23T12:58:02.996Z,19.88
2022-12-23T13:00:46.623Z,22.98
2022-12-23T13:03:59.015Z,22.27
2022-12-23T13:06:34.925Z,20.10
2022-12-23T13:09:14.927Z,25.27
2022-12-23T13:11:56.753Z,27.17
2022-12-23T13:14:35.020Z,22.27
2022-12-23T13:17:20.739Z,21.10
2022-12-23T13:20:02.703Z,29.10
2022-12-23T13:22:34.032Z,20.48
2022-12-23T13:25:14.796Z,21.45
2022-12-23T13:28:08.472Z,29.20
2022-12-23T13:31:04.572Z,17.50
2022-12-23T13:33:48.324Z,19.15
2022-12-23T13:36:43.451Z,20.77
2022-12-23T13:39:25.822Z,22.02
2022-12-23T13:41:59.883Z,19.63
2022-12-23T13:44:33.153Z,19.70
2022-12-23T13:47:03.229Z,24.75
2022-12-23T13:49:39.726Z,21.70
2022-12-23T13:52:29.923Z,21.77
2022-12-23T18:32:51.720Z,18.63
2022-12-23T18:35:27.830Z,18.60
2022-12-23T18:37:55.507Z,23.60
2022-12-23T18:40:26.786Z,21.35
2022-12-23T18:42:58.227Z,22.85
2022-12-23T18:45:38.677Z,24.08
2022-12-23T18:48:08.654Z,21.10
2022-12-23T18:50:38.301Z,20.75
2022-12-23T18:53:07.266Z,17.80
2022-12-23T18:55:34.826Z,14.90
2022-12-23T18:58:02.076Z,18.42
2022-12-23T19:00:31.365Z,19.15
2022-12-23T19:02:58.595Z,16.80
2022-12-23T19:05:32.987Z,17.77
2022-12-23T19:08:00.735Z,15.65
2022-12-23T19:10:32.923Z,14.85
2022-12-23T19:13:00.720Z,13.13
2022-12-23T19:15:28.503Z,12.88
2022-12-23T19:17:55.800Z,15.48
2022-12-23T19:20:23.081Z,14.63
2022-12-23T19:22:50.266Z,18.30
2022-12-23T19:25:19.260Z,14.88
2022-12-23T19:27:47.306Z,16.58
2022-12-23T19:30:17.659Z,13.60
2022-12-23T19:32:45.364Z,11.85
2022-12-23T19:35:15.549Z,13.23
2022-12-23T19:37:43.146Z,12.43
2022-12-23T19:40:10.966Z,11.98
2022-12-23T19:42:39.305Z,11.73
2022-12-23T19:45:08.702Z,12.43
2022-12-23T19:47:35.984Z,10.68
2022-12-23T19:50:04.662Z,10.55
2022-12-23T19:52:31.947Z,11.77
2022-12-23T19:54:59.060Z,9.38
2022-12-23T19:57:26.239Z,8.18
2022-12-23T19:59:53.806Z,5.38
2022-12-23T20:02:20.944Z,7.00
2022-12-23T20:04:48.389Z,4.40
2022-12-23T20:07:16.217Z,3.95
2022-12-23T20:09:43.311Z,3.40
2022-12-23T20:12:10.806Z,2.65
2022-12-23T20:14:38.187Z,3.67
2022-12-23T20:17:05.435Z,3.92
2022-12-23T20:19:32.934Z,3.15
2022-12-23T20:22:00.125Z,3.60
2022-12-23T20:24:27.845Z,2.28
2022-12-23T20:26:56.254Z,3.50
2022-12-23T20:29:23.424Z,3.13
2022-12-23T20:31:50.782Z,11.10
2022-12-23T20:34:18.378Z,5.03
2022-12-23T20:36:45.769Z,3.92
2022-12-23T20:39:12.968Z,5.95
2022-12-23T20:41:40.426Z,4.25
2022-12-23T20:44:33.749Z,2.60
2022-12-23T20:46:55.048Z,2.55
2022-12-23T20:49:22.281Z,2.75
2022-12-23T20:51:49.434Z,2.22
2022-12-23T20:54:16.658Z,2.55
2022-12-23T20:56:43.814Z,5.15
2022-12-23T20:59:10.911Z,1.60
2022-12-23T21:01:39.970Z,1.83
2022-12-23T21:04:10.385Z,2.90
2022-12-23T21:06:38.087Z,2.88
2022-12-23T21:09:07.396Z,2.90
2022-12-23T21:11:37.254Z,2.50
2022-12-23T21:14:07.232Z,2.67
2022-12-23T21:16:36.756Z,4.03
2022-12-23T21:19:05.419Z,3.03
2022-12-23T21:21:32.842Z,3.13
2022-12-23T21:24:04.725Z,1.90
2022-12-23T21:26:34.228Z,2.13
2022-12-23T21:29:04.126Z,2.28
2022-12-23T21:31:33.582Z,2.00
2022-12-23T21:34:00.902Z,1.60
2022-12-23T21:36:31.430Z,1.40
2022-12-23T21:38:59.742Z,1.98
2022-12-23T21:41:36.847Z,2.17
2022-12-23T21:44:04.284Z,1.38
2022-12-23T21:46:31.463Z,1.50
2022-12-23T21:48:59.686Z,1.35
2022-12-23T21:51:36.942Z,1.42
2022-12-23T21:54:07.645Z,1.65
2022-12-23T21:56:35.168Z,1.52
2022-12-23T21:59:05.311Z,2.40
2022-12-23T22:01:33.824Z,1.35
2022-12-23T22:04:01.167Z,1.50
2022-12-23T22:06:46.559Z,1.20
2022-12-23T22:09:17.272Z,1.27
2022-12-23T22:11:45.239Z,1.17
2022-12-23T22:14:14.981Z,1.45
2022-12-23T22:16:42.310Z,1.40
2022-12-23T22:19:11.355Z,1.40
2022-12-23T22:21:40.010Z,1.20
2022-12-23T22:24:08.055Z,1.30
2022-12-23T22:26:35.822Z,1.63
2022-12-23T22:29:06.230Z,1.65
2022-12-23T22:31:46.193Z,1.73
2022-12-23T22:34:17.019Z,1.30
2022-12-23T22:36:44.640Z,1.30
2022-12-23T22:39:19.768Z,1.27
2022-12-23T22:41:48.377Z,1.50
2022-12-23T22:44:16.413Z,1.50
2022-12-23T22:46:43.937Z,1.50
2022-12-23T22:49:15.506Z,1.00
2022-12-23T22:51:43.654Z,1.20
2022-12-23T22:54:11.235Z,1.30
2022-12-23T22:56:38.491Z,1.90
2022-12-23T22:59:05.726Z,1.27
2022-12-23T23:01:34.816Z,1.10
2022-12-23T23:04:03.769Z,2.40
2022-12-23T23:06:40.131Z,1.50
2022-12-23T23:09:09.747Z,2.22
2022-12-23T23:11:37.131Z,1.20
2022-12-23T23:14:04.669Z,1.20
2022-12-23T23:16:32.615Z,1.20
2022-12-23T23:19:00.369Z,1.20
2022-12-23T23:21:27.622Z,1.58
2022-12-23T23:23:54.915Z,1.30
2022-12-23T23:26:22.213Z,1.30
2022-12-23T23:28:49.520Z,1.60
2022-12-23T23:31:41.044Z,1.20
2022-12-23T23:34:04.178Z,1.10
2022-12-23T23:36:31.421Z,1.02
2022-12-23T23:38:58.681Z,1.00
2022-12-23T23:41:25.925Z,1.00
2022-12-23T23:43:53.219Z,1.10
2022-12-23T23:46:20.486Z,1.00
2022-12-23T23:48:48.117Z,1.98
2022-12-23T23:51:15.351Z,1.20
2022-12-23T23:53:42.555Z,1.20
2022-12-23T23:56:09.911Z,1.17
2022-12-23T23:58:37.718Z,1.20
